createdAt,value
2019-04-29T00:00:11.207Z,99.90
2019-04-29T00:02:43.717Z,99.90
2019-04-29T00:05:15.076Z,99.90
2019-04-29T00:07:46.022Z,99.90
2019-04-29T00:10:21.758Z,99.90
2019-04-29T00:12:53.198Z,99.90
2019-04-29T00:15:43.252Z,99.90
2019-04-29T00:18:22.150Z,99.90
2019-04-29T00:20:53.905Z,99.90
2019-04-29T00:23:24.894Z,99.90
2019-04-29T00:25:56.416Z,99.90
2019-04-29T00:28:27.412Z,99.90
2019-04-29T00:30:58.505Z,99.90
2019-04-29T00:33:29.596Z,99.90
2019-04-29T00:36:00.718Z,99.90
2019-04-29T00:38:57.087Z,99.90
2019-04-29T00:41:41.454Z,99.90
2019-04-29T00:44:14.604Z,99.90
2019-04-29T00:46:46.032Z,99.90
2019-04-29T00:49:17.827Z,99.90
2019-04-29T00:51:49.150Z,99.90
2019-04-29T00:54:37.966Z,99.90
2019-04-29T00:57:08.949Z,99.90
2019-04-29T00:59:40.275Z,99.90
2019-04-29T01:02:11.337Z,99.90
2019-04-29T01:04:42.338Z,99.90
2019-04-29T01:07:13.480Z,99.90
2019-04-29T01:09:44.518Z,99.90
2019-04-29T01:12:15.517Z,99.90
2019-04-29T01:14:46.545Z,99.90
2019-04-29T01:17:17.598Z,99.90
2019-04-29T01:19:48.666Z,99.90
2019-04-29T01:22:19.615Z,99.90
2019-04-29T01:24:50.884Z,99.90
2019-04-29T01:27:29.701Z,99.90
2019-04-29T01:30:01.155Z,99.90
2019-04-29T01:32:32.613Z,99.90
2019-04-29T01:35:04.403Z,99.90
2019-04-29T01:37:42.790Z,99.90
2019-04-29T01:40:31.427Z,99.90
2019-04-29T01:43:02.483Z,99.90
2019-04-29T01:45:34.531Z,99.90
2019-04-29T01:48:06.648Z,99.90
2019-04-29T01:50:37.658Z,99.90
2019-04-29T01:53:08.691Z,99.90
2019-04-29T01:55:39.685Z,99.90
2019-04-29T01:58:10.619Z,99.90
2019-04-29T02:00:41.937Z,99.90
2019-04-29T02:03:13.234Z,99.90
2019-04-29T02:05:44.336Z,99.90
2019-04-29T02:08:15.352Z,99.90
2019-04-29T02:10:46.700Z,99.90
2019-04-29T02:13:17.715Z,99.90
2019-04-29T02:15:49.803Z,99.90
2019-04-29T02:18:21.052Z,99.90
2019-04-29T02:20:52.153Z,99.90
2019-04-29T02:23:35.254Z,99.90
2019-04-29T02:26:07.383Z,99.90
2019-04-29T02:28:38.361Z,99.90
2019-04-29T02:31:27.022Z,99.90
2019-04-29T02:33:58.154Z,99.90
2019-04-29T02:36:30.113Z,99.90
2019-04-29T02:39:20.727Z,99.90
2019-04-29T02:42:20.596Z,99.90
2019-04-29T02:44:52.534Z,99.90
2019-04-29T02:47:23.928Z,99.90
2019-04-29T02:49:54.982Z,99.90
2019-04-29T02:52:25.935Z,99.90
2019-04-29T02:54:59.854Z,99.90
2019-04-29T02:57:55.874Z,99.90
2019-04-29T03:00:46.190Z,99.90
2019-04-29T03:03:23.682Z,99.90
2019-04-29T03:05:58.790Z,99.90
2019-04-29T03:08:29.775Z,99.90
2019-04-29T03:11:00.843Z,99.90
2019-04-29T03:13:31.888Z,99.90
2019-04-29T03:16:03.560Z,99.90
2019-04-29T03:18:36.498Z,99.90
2019-04-29T03:21:18.884Z,99.90
2019-04-29T03:23:50.008Z,99.90
2019-04-29T03:26:21.008Z,99.90
2019-04-29T03:28:53.050Z,99.90
2019-04-29T03:31:24.098Z,99.90
2019-04-29T03:33:55.896Z,99.90
2019-04-29T03:36:26.898Z,99.90
2019-04-29T03:38:58.146Z,99.90
2019-04-29T03:41:29.202Z,99.90
2019-04-29T03:44:00.228Z,99.90
2019-04-29T03:46:31.307Z,99.90
2019-04-29T03:49:02.205Z,99.90
2019-04-29T03:51:33.286Z,99.90
2019-04-29T03:54:04.300Z,99.90
2019-04-29T03:56:35.382Z,99.90
2019-04-29T03:59:06.386Z,99.90
2019-04-29T04:01:43.086Z,99.90
2019-04-29T04:04:34.420Z,99.90
2019-04-29T04:07:23.110Z,99.90
2019-04-29T04:09:54.161Z,99.90
2019-04-29T04:12:25.485Z,99.90
2019-04-29T04:14:56.595Z,99.90
2019-04-29T04:17:56.120Z,99.90
2019-04-29T04:20:27.551Z,99.90
2019-04-29T04:22:59.592Z,99.90
2019-04-29T04:25:31.048Z,99.90
2019-04-29T04:28:02.075Z,99.90
2019-04-29T04:30:33.109Z,99.90
2019-04-29T04:33:04.033Z,99.90
2019-04-29T04:35:35.277Z,99.90
2019-04-29T04:38:06.272Z,99.90
2019-04-29T04:40:41.645Z,99.90
2019-04-29T04:43:12.658Z,99.90
2019-04-29T04:45:43.743Z,99.90
2019-04-29T04:48:15.813Z,99.90
2019-04-29T04:50:46.860Z,99.90
2019-04-29T04:53:18.260Z,99.90
2019-04-29T04:55:51.722Z,99.90
2019-04-29T04:58:22.833Z,99.90
2019-04-29T05:00:54.206Z,99.90
2019-04-29T05:03:25.278Z,99.90
2019-04-29T05:05:56.588Z,99.90
2019-04-29T05:08:27.932Z,99.90
2019-04-29T05:10:58.983Z,99.90
2019-04-29T05:13:30.000Z,99.90
2019-04-29T05:16:12.453Z,99.90
2019-04-29T05:18:43.745Z,99.90
2019-04-29T05:21:14.661Z,99.90
2019-04-29T05:23:45.673Z,99.90
2019-04-29T05:26:16.954Z,99.90
2019-04-29T05:28:47.862Z,99.90
2019-04-29T05:31:18.787Z,99.90
2019-04-29T05:33:55.925Z,99.90
2019-04-29T05:36:39.743Z,99.90
2019-04-29T05:39:23.163Z,99.90
2019-04-29T05:41:54.638Z,99.90
2019-04-29T05:44:43.471Z,99.90
2019-04-29T05:47:20.610Z,99.90
2019-04-29T05:50:11.843Z,99.90
2019-04-29T05:52:51.040Z,99.90
2019-04-29T05:55:22.007Z,99.90
2019-04-29T05:57:55.874Z,99.90
2019-04-29T06:00:27.355Z,99.90
2019-04-29T06:02:58.442Z,99.90
2019-04-29T06:05:31.735Z,99.90
2019-04-29T06:08:04.539Z,99.90
2019-04-29T06:10:35.834Z,99.90
2019-04-29T06:13:07.116Z,99.90
2019-04-29T06:15:38.069Z,99.90
2019-04-29T06:18:09.350Z,99.90
2019-04-29T06:20:40.669Z,99.90
2019-04-29T06:23:11.777Z,99.90
2019-04-29T06:25:42.833Z,99.90
2019-04-29T06:28:14.181Z,99.90
2019-04-29T06:30:50.234Z,99.90
2019-04-29T06:33:19.919Z,99.90
2019-04-29T06:35:51.031Z,99.90
2019-04-29T06:38:22.059Z,99.90
2019-04-29T06:40:54.733Z,99.90
2019-04-29T06:43:28.790Z,99.90
2019-04-29T06:45:58.497Z,99.90
2019-04-29T06:48:29.455Z,99.90
2019-04-29T06:51:01.743Z,99.90
2019-04-29T06:53:33.203Z,99.90
2019-04-29T06:56:09.277Z,99.90
2019-04-29T06:58:40.932Z,99.90
2019-04-29T07:01:11.947Z,99.90
2019-04-29T07:03:47.110Z,99.90
2019-04-29T07:06:18.082Z,99.90
2019-04-29T07:08:49.029Z,99.90
2019-04-29T07:11:20.349Z,99.90
2019-04-29T07:13:53.416Z,99.90
2019-04-29T07:16:31.950Z,99.90
2019-04-29T07:19:01.744Z,99.90
2019-04-29T07:21:34.846Z,99.90
2019-04-29T07:24:06.202Z,99.90
2019-04-29T07:26:37.544Z,99.90
2019-04-29T07:29:08.520Z,99.90
2019-04-29T07:31:39.797Z,99.90
2019-04-29T07:34:10.762Z,99.90
2019-04-29T07:36:42.108Z,99.90
2019-04-29T07:39:13.523Z,99.90
2019-04-29T07:41:44.980Z,99.90
2019-04-29T07:44:18.408Z,99.90
2019-04-29T07:46:56.631Z,99.90
2019-04-29T07:49:24.738Z,99.90
2019-04-29T07:51:55.800Z,99.90
2019-04-29T07:54:27.091Z,99.90
2019-04-29T07:57:01.578Z,99.90
2019-04-29T07:59:33.904Z,99.90
2019-04-29T08:02:05.665Z,99.90
2019-04-29T08:04:36.645Z,99.90
2019-04-29T08:07:07.680Z,99.90
2019-04-29T08:09:44.278Z,99.90
2019-04-29T08:12:14.426Z,99.90
2019-04-29T08:14:48.015Z,99.90
2019-04-29T08:17:19.124Z,99.90
2019-04-29T08:19:50.073Z,99.90
2019-04-29T08:22:22.856Z,99.90
2019-04-29T08:24:55.011Z,99.90
2019-04-29T08:27:39.268Z,99.90
2019-04-29T08:30:06.754Z,99.90
2019-04-29T08:32:38.614Z,99.90
2019-04-29T08:35:10.451Z,99.90
2019-04-29T08:37:41.550Z,99.90
2019-04-29T08:40:16.503Z,99.90
2019-04-29T08:42:52.550Z,99.90
2019-04-29T08:45:39.046Z,99.90
2019-04-29T08:48:10.174Z,99.90
2019-04-29T08:50:41.573Z,99.90
2019-04-29T08:53:12.937Z,99.90
2019-04-29T08:55:43.959Z,99.90
2019-04-29T08:58:14.905Z,99.90
2019-04-29T09:00:45.968Z,99.90
2019-04-29T09:03:18.895Z,99.90
2019-04-29T09:06:04.128Z,99.90
2019-04-29T09:08:23.118Z,99.90
2019-04-29T09:10:54.093Z,99.90
2019-04-29T09:13:25.150Z,99.90
2019-04-29T09:15:56.627Z,99.90
2019-04-29T09:18:27.714Z,99.90
2019-04-29T09:20:58.626Z,99.90
2019-04-29T09:23:31.779Z,99.90
2019-04-29T09:26:24.098Z,99.90
2019-04-29T09:28:53.958Z,99.90
2019-04-29T09:31:24.964Z,99.90
2019-04-29T09:34:06.331Z,99.90
2019-04-29T09:36:29.067Z,99.90
2019-04-29T09:39:00.219Z,99.90
2019-04-29T09:41:38.625Z,99.90
2019-04-29T09:44:40.326Z,99.90
2019-04-29T09:47:10.486Z,99.90
2019-04-29T09:49:41.555Z,99.90
2019-04-29T09:52:12.672Z,99.90
2019-04-29T09:54:43.580Z,99.90
2019-04-29T09:57:14.585Z,99.90
2019-04-29T09:59:50.598Z,99.90
2019-04-29T10:02:31.199Z,99.90
2019-04-29T10:05:29.685Z,99.90
2019-04-29T10:08:00.746Z,99.90
2019-04-29T10:10:32.997Z,99.90
2019-04-29T10:13:04.336Z,99.90
2019-04-29T10:16:00.386Z,99.90
2019-04-29T10:18:34.500Z,99.90
2019-04-29T10:21:08.677Z,99.90
2019-04-29T10:23:39.985Z,99.90
2019-04-29T10:26:10.986Z,99.90
2019-04-29T10:29:01.558Z,99.90
2019-04-29T10:31:32.622Z,99.90
2019-04-29T10:34:03.627Z,99.90
2019-04-29T10:36:34.777Z,99.90
2019-04-29T10:39:42.475Z,99.90
2019-04-29T10:42:15.646Z,99.90
2019-04-29T10:45:04.645Z,99.90
2019-04-29T10:47:43.135Z,99.90
2019-04-29T10:50:18.975Z,99.90
2019-04-29T10:52:50.480Z,99.90
2019-04-29T10:55:25.501Z,99.90
2019-04-29T10:57:55.235Z,99.90
2019-04-29T11:00:57.409Z,99.90
2019-04-29T11:03:28.985Z,99.90
2019-04-29T11:06:01.825Z,99.90
2019-04-29T11:08:51.820Z,99.90
2019-04-29T11:11:27.075Z,99.90
2019-04-29T11:13:57.591Z,99.90
2019-04-29T11:16:45.327Z,99.90
2019-04-29T11:19:05.300Z,99.90
2019-04-29T11:21:38.873Z,99.90
2019-04-29T11:24:27.139Z,99.90
2019-04-29T11:27:18.304Z,99.90
2019-04-29T11:29:49.303Z,99.90
2019-04-29T11:32:29.182Z,99.90
2019-04-29T11:35:24.507Z,99.90
2019-04-29T11:37:59.654Z,99.90
2019-04-29T11:40:42.589Z,99.90
2019-04-29T11:43:01.602Z,99.90
2019-04-29T11:45:38.541Z,99.90
2019-04-29T11:48:07.140Z,99.90
2019-04-29T11:57:40.620Z,99.90
2019-04-29T12:00:26.224Z,99.90
2019-04-29T12:03:00.673Z,99.90
2019-04-29T12:05:45.029Z,99.90
2019-04-29T12:08:17.044Z,99.90
2019-04-29T12:11:05.333Z,99.90
2019-04-29T12:13:28.346Z,99.90
2019-04-29T12:16:08.328Z,99.90
2019-04-29T12:18:44.231Z,99.90
2019-04-29T12:21:25.457Z,99.90
2019-04-29T12:23:57.826Z,99.90
2019-04-29T12:26:28.909Z,99.90
2019-04-29T12:28:59.989Z,99.90
2019-04-29T12:31:41.062Z,99.90
2019-04-29T12:34:26.744Z,99.90
2019-04-29T12:36:57.555Z,99.90
2019-04-29T12:39:47.174Z,99.90
2019-04-29T12:42:40.229Z,99.90
2019-04-29T12:45:29.293Z,99.90
2019-04-29T12:48:00.390Z,99.90
2019-04-29T12:50:31.869Z,99.90
2019-04-29T12:53:03.305Z,99.90
2019-04-29T12:55:45.026Z,99.90
2019-04-29T12:58:12.216Z,99.90
2019-04-29T13:00:48.126Z,99.90
2019-04-29T13:03:41.104Z,99.90
2019-04-29T13:06:24.151Z,99.90
2019-04-29T13:08:55.969Z,99.90
2019-04-29T13:11:36.094Z,99.90
2019-04-29T13:14:01.780Z,99.90
2019-04-29T13:16:43.394Z,99.90
2019-04-29T13:19:20.329Z,99.90
2019-04-29T13:21:50.940Z,99.90
2019-04-29T13:24:24.484Z,99.90
2019-04-29T13:26:54.919Z,99.90
2019-04-29T13:29:27.646Z,99.90
2019-04-29T13:32:01.668Z,99.90
2019-04-29T13:34:35.755Z,99.90
2019-04-29T13:37:08.251Z,99.90
2019-04-29T13:39:40.788Z,99.90
2019-04-29T13:42:15.622Z,99.90
2019-04-29T13:45:05.353Z,99.90
2019-04-29T13:47:54.371Z,99.90
2019-04-29T13:50:47.344Z,99.90
2019-04-29T13:53:19.816Z,99.90
2019-04-29T13:56:10.043Z,99.90
2019-04-29T13:58:27.186Z,99.90
2019-04-29T14:01:22.064Z,99.90
2019-04-29T14:03:50.773Z,99.90
2019-04-29T14:06:22.236Z,99.90
2019-04-29T14:08:54.233Z,99.90
2019-04-29T14:11:26.044Z,99.90
2019-04-29T14:13:58.062Z,99.90
2019-04-29T14:16:29.135Z,99.90
2019-04-29T14:19:00.205Z,99.90
2019-04-29T14:21:31.910Z,99.90
2019-04-29T14:24:03.813Z,99.90
2019-04-29T14:26:36.953Z,99.90
2019-04-29T14:29:07.699Z,99.90
2019-04-29T14:31:40.101Z,99.90
2019-04-29T14:34:20.412Z,99.90
2019-04-29T14:36:51.409Z,99.90
2019-04-29T14:39:36.536Z,99.90
2019-04-29T14:41:59.500Z,99.90
2019-04-29T14:44:49.523Z,99.90
2019-04-29T14:47:45.027Z,99.90
2019-04-29T14:50:20.519Z,99.90
2019-04-29T14:52:50.662Z,99.90
2019-04-29T14:55:25.214Z,99.90
2019-04-29T14:57:54.477Z,99.90
2019-04-29T15:00:37.725Z,99.90
2019-04-29T15:03:08.799Z,99.90
2019-04-29T15:05:40.390Z,99.90
2019-04-29T15:08:11.488Z,99.90
2019-04-29T15:10:43.985Z,99.90
2019-04-29T15:13:20.994Z,99.90
2019-04-29T15:16:09.534Z,99.90
2019-04-29T15:19:02.422Z,99.90
2019-04-29T15:21:45.048Z,99.90
2019-04-29T15:24:17.508Z,99.90
2019-04-29T15:26:48.141Z,99.90
2019-04-29T15:29:19.234Z,99.90
2019-04-29T15:31:50.347Z,98.80
2019-04-29T15:34:21.689Z,99.90
2019-04-29T15:36:53.141Z,99.90
2019-04-29T15:39:25.446Z,99.80
2019-04-29T15:41:57.346Z,99.60
2019-04-29T15:44:28.491Z,99.90
2019-04-29T15:46:59.576Z,99.90
2019-04-29T15:49:30.560Z,99.90
2019-04-29T15:52:01.956Z,98.70
2019-04-29T15:54:33.112Z,98.50
2019-04-29T15:57:09.266Z,97.10
2019-04-29T15:59:48.634Z,98.50
2019-04-29T16:02:10.097Z,98.40
2019-04-29T16:04:47.422Z,98.40
2019-04-29T16:07:51.506Z,98.50
2019-04-29T16:10:38.206Z,98.30
2019-04-29T16:13:10.384Z,98.80
2019-04-29T16:15:42.805Z,99.30
2019-04-29T16:18:14.835Z,99.90
2019-04-29T16:20:46.130Z,99.80
2019-04-29T16:23:18.566Z,99.90
2019-04-29T16:25:52.430Z,99.90
2019-04-29T16:28:24.224Z,99.90
2019-04-29T16:30:54.982Z,99.90
2019-04-29T16:33:26.092Z,99.90
2019-04-29T16:35:57.566Z,99.90
2019-04-29T16:38:29.881Z,99.90
2019-04-29T16:41:19.491Z,99.90
2019-04-29T16:43:50.769Z,99.90
2019-04-29T16:48:57.907Z,99.90
2019-04-29T16:51:28.984Z,99.90
2019-04-29T16:54:00.452Z,99.90
2019-04-29T16:56:31.973Z,99.90
2019-04-29T16:59:09.349Z,99.90
2019-04-29T17:01:36.060Z,99.90
2019-04-29T17:04:07.140Z,99.90
2019-04-29T17:06:41.638Z,99.90
2019-04-29T17:09:45.149Z,99.90
2019-04-29T17:12:16.157Z,99.90
2019-04-29T17:15:02.986Z,99.90
2019-04-29T17:17:29.261Z,99.90
2019-04-29T17:19:57.701Z,99.90
2019-04-29T17:22:28.768Z,99.90
2019-04-29T17:25:00.099Z,99.90
2019-04-29T17:27:42.192Z,99.90
2019-04-29T17:30:38.263Z,99.90
2019-04-29T17:33:32.670Z,99.90
2019-04-29T17:35:15.895Z,99.90
2019-04-29T17:36:04.797Z,99.90
2019-04-29T17:38:36.283Z,99.90
2019-04-29T17:41:07.619Z,99.90
2019-04-29T17:44:18.810Z,99.90
2019-04-29T17:46:56.325Z,99.90
2019-04-29T17:49:34.048Z,99.90
2019-04-29T17:52:09.015Z,99.90
2019-04-29T17:54:42.289Z,99.90
2019-04-29T17:57:36.401Z,99.90
2019-04-29T18:00:43.977Z,99.90
2019-04-29T18:03:41.413Z,99.90
2019-04-29T18:06:28.096Z,99.90
2019-04-29T18:09:29.673Z,99.90
2019-04-29T18:12:11.539Z,99.90
2019-04-29T18:14:42.584Z,99.90
2019-04-29T18:17:24.242Z,99.90
2019-04-29T18:20:13.608Z,99.90
2019-04-29T18:23:21.704Z,99.90
2019-04-29T18:26:05.720Z,99.90
2019-04-29T18:28:37.417Z,99.90
2019-04-29T18:31:10.354Z,99.90
2019-04-29T18:33:41.376Z,99.90
2019-04-29T18:36:22.011Z,99.90
2019-04-29T18:38:47.548Z,99.90
2019-04-29T18:41:24.691Z,99.90
2019-04-29T18:43:56.391Z,99.90
2019-04-29T18:46:25.939Z,99.90
2019-04-29T18:49:02.981Z,99.90
2019-04-29T18:51:30.873Z,99.90
2019-04-29T18:54:01.975Z,99.90
2019-04-29T18:56:36.372Z,99.90
2019-04-29T18:59:06.839Z,99.90
2019-04-29T19:01:37.972Z,99.90
2019-04-29T19:04:36.059Z,99.90
2019-04-29T19:07:07.594Z,99.90
2019-04-29T19:09:39.568Z,99.90
2019-04-29T19:12:11.112Z,99.90
2019-04-29T19:14:45.325Z,99.90
2019-04-29T19:17:16.232Z,99.90
2019-04-29T19:19:48.767Z,99.90
2019-04-29T19:22:19.784Z,99.90
2019-04-29T19:24:51.361Z,99.90
2019-04-29T19:27:22.435Z,99.90
2019-04-29T19:29:55.059Z,99.90
2019-04-29T19:32:26.211Z,99.90
2019-04-29T19:34:58.393Z,99.90
2019-04-29T19:37:32.373Z,99.90
2019-04-29T19:40:02.742Z,99.90
2019-04-29T19:42:36.002Z,99.90
2019-04-29T19:45:13.151Z,99.90
2019-04-29T19:47:39.563Z,99.90
2019-04-29T19:50:17.959Z,99.90
2019-04-29T19:52:55.500Z,99.90
2019-04-29T19:55:27.853Z,99.90
2019-04-29T19:57:59.506Z,99.90
2019-04-29T20:00:32.091Z,99.90
2019-04-29T20:03:18.358Z,99.90
2019-04-29T20:05:43.612Z,99.90
2019-04-29T20:08:37.641Z,99.90
2019-04-29T20:10:51.515Z,99.90
2019-04-29T20:13:30.675Z,99.90
2019-04-29T20:16:10.871Z,99.90
2019-04-29T20:18:58.433Z,99.90
2019-04-29T20:21:28.194Z,99.90
2019-04-29T20:23:53.278Z,99.90
2019-04-29T20:26:29.674Z,99.90
2019-04-29T20:28:57.466Z,99.90
2019-04-29T20:31:28.696Z,99.90
2019-04-29T20:34:01.561Z,99.90
2019-04-29T20:36:41.749Z,99.90
2019-04-29T20:39:15.103Z,99.90
2019-04-29T20:41:44.563Z,99.90
2019-04-29T20:44:16.052Z,99.90
2019-04-29T20:47:12.723Z,99.90
2019-04-29T20:49:20.083Z,99.90
2019-04-29T20:51:55.761Z,99.90
2019-04-29T20:54:28.637Z,99.90
2019-04-29T20:57:04.954Z,99.90
2019-04-29T20:59:33.496Z,99.90
2019-04-29T21:02:12.534Z,99.90
2019-04-29T21:04:46.544Z,99.90
2019-04-29T21:07:18.430Z,99.90
2019-04-29T21:09:46.477Z,99.90
2019-04-29T21:12:36.648Z,99.90
2019-04-29T21:15:14.986Z,99.90
2019-04-29T21:17:45.222Z,99.90
2019-04-29T21:20:17.850Z,99.90
2019-04-29T21:22:52.446Z,99.90
2019-04-29T21:25:24.676Z,99.90
2019-04-29T21:27:58.171Z,99.90
2019-04-29T21:30:35.437Z,99.90
2019-04-29T21:33:00.607Z,99.90
2019-04-29T21:35:39.586Z,99.90
2019-04-29T21:38:35.985Z,99.90
2019-04-29T21:41:10.823Z,99.90
2019-04-29T21:43:46.423Z,99.90
2019-04-29T21:46:18.027Z,99.90
2019-04-29T21:48:48.351Z,99.90
2019-04-29T21:51:19.316Z,99.90
2019-04-29T21:53:50.645Z,99.90
2019-04-29T21:56:21.603Z,99.90
2019-04-29T21:58:53.050Z,99.90
2019-04-29T22:01:25.183Z,99.90
2019-04-29T22:03:57.765Z,99.90
2019-04-29T22:06:30.147Z,99.90
2019-04-29T22:09:02.638Z,99.90
2019-04-29T22:11:36.114Z,99.90
2019-04-29T22:14:09.916Z,99.90
2019-04-29T22:16:41.042Z,99.90
2019-04-29T22:19:12.058Z,99.90
2019-04-29T22:21:43.192Z,99.90
2019-04-29T22:24:14.581Z,99.90
2019-04-29T22:26:45.972Z,99.90
2019-04-29T22:29:17.383Z,99.90
2019-04-29T22:31:48.442Z,99.90
2019-04-29T22:34:20.002Z,99.90
2019-04-29T22:36:52.628Z,99.90
2019-04-29T22:39:26.802Z,99.90
2019-04-29T22:42:23.605Z,99.90
2019-04-29T22:44:57.316Z,99.90
2019-04-29T22:47:27.822Z,99.90
2019-04-29T22:50:03.153Z,99.90
2019-04-29T22:52:32.053Z,99.90
2019-04-29T22:55:03.201Z,99.90
2019-04-29T22:57:34.580Z,99.90
2019-04-29T23:00:06.896Z,99.90
2019-04-29T23:02:39.456Z,99.90
2019-04-29T23:05:10.951Z,99.90
2019-04-29T23:07:42.420Z,99.90
2019-04-29T23:10:13.368Z,99.90
2019-04-29T23:12:45.120Z,99.90
2019-04-29T23:15:22.532Z,99.90
2019-04-29T23:17:50.855Z,99.90
2019-04-29T23:20:49.939Z,99.90
2019-04-29T23:23:32.974Z,99.90
2019-04-29T23:26:03.765Z,99.90
2019-04-29T23:28:32.792Z,99.90
2019-04-29T23:31:15.642Z,99.90
2019-04-29T23:33:46.717Z,99.90
2019-04-29T23:36:17.803Z,99.90
2019-04-29T23:38:49.224Z,99.90
2019-04-29T23:41:20.174Z,99.90
2019-04-29T23:43:51.190Z,99.90
2019-04-29T23:46:22.166Z,99.90
2019-04-29T23:48:56.502Z,99.90
2019-04-29T23:51:33.756Z,99.90
2019-04-29T23:54:03.739Z,99.90
2019-04-29T23:56:38.572Z,99.90
2019-04-29T23:59:18.531Z,99.90
